sensor_id;sensor_type;location;lat;lon;timestamp;temperature;humidity
33594;DHT22;19920;52.242;20.940;2023-04-20T00:01:06;9.90;99.90
33594;DHT22;19920;52.242;20.940;2023-04-20T00:03:31;9.80;99.90
33594;DHT22;19920;52.242;20.940;2023-04-20T00:05:58;9.80;99.90
33594;DHT22;19920;52.242;20.940;2023-04-20T00:08:27;9.70;99.90
33594;DHT22;19920;52.242;20.940;2023-04-20T00:10:52;9.80;99.90
33594;DHT22;19920;52.242;20.940;2023-04-20T00:13:18;9.70;99.90
33594;DHT22;19920;52.242;20.940;2023-04-20T00:15:44;9.70;99.90
33594;DHT22;19920;52.242;20.940;2023-04-20T00:18:10;9.60;99.90
33594;DHT22;19920;52.242;20.940;2023-04-20T00:20:35;9.60;99.90
33594;DHT22;19920;52.242;20.940;2023-04-20T00:23:02;9.60;99.90
33594;DHT22;19920;52.242;20.940;2023-04-20T00:25:27;9.60;99.90
33594;DHT22;19920;52.242;20.940;2023-04-20T00:27:55;9.60;99.90
33594;DHT22;19920;52.242;20.940;2023-04-20T00:30:21;9.60;99.90
33594;DHT22;19920;52.242;20.940;2023-04-20T00:32:46;9.60;99.90
33594;DHT22;19920;52.242;20.940;2023-04-20T00:35:12;9.60;99.90
33594;DHT22;19920;52.242;20.940;2023-04-20T00:37:38;9.60;99.90
33594;DHT22;19920;52.242;20.940;2023-04-20T00:40:04;9.60;99.90
33594;DHT22;19920;52.242;20.940;2023-04-20T00:42:30;9.70;99.90
33594;DHT22;19920;52.242;20.940;2023-04-20T00:44:56;9.70;99.90
33594;DHT22;19920;52.242;20.940;2023-04-20T00:47:21;9.70;99.90
33594;DHT22;19920;52.242;20.940;2023-04-20T00:49:47;9.70;99.90
33594;DHT22;19920;52.242;20.940;2023-04-20T00:52:13;9.70;99.90
33594;DHT22;19920;52.242;20.940;2023-04-20T00:54:39;9.80;99.90
33594;DHT22;19920;52.242;20.940;2023-04-20T00:57:05;9.80;99.90
33594;DHT22;19920;52.242;20.940;2023-04-20T00:59:30;9.80;99.90
33594;DHT22;19920;52.242;20.940;2023-04-20T01:01:56;9.80;99.90
33594;DHT22;19920;52.242;20.940;2023-04-20T01:04:22;9.90;99.90
33594;DHT22;19920;52.242;20.940;2023-04-20T01:06:48;9.90;99.90
33594;DHT22;19920;52.242;20.940;2023-04-20T01:09:14;9.90;99.90
33594;DHT22;19920;52.242;20.940;2023-04-20T01:11:39;10.00;99.90
33594;DHT22;19920;52.242;20.940;2023-04-20T01:14:05;10.00;99.90
33594;DHT22;19920;52.242;20.940;2023-04-20T01:16:31;10.00;99.90
33594;DHT22;19920;52.242;20.940;2023-04-20T01:18:59;10.00;99.90
33594;DHT22;19920;52.242;20.940;2023-04-20T01:21:25;10.10;99.90
33594;DHT22;19920;52.242;20.940;2023-04-20T01:23:51;10.10;99.90
33594;DHT22;19920;52.242;20.940;2023-04-20T01:26:18;10.20;99.90
33594;DHT22;19920;52.242;20.940;2023-04-20T01:28:44;10.20;99.90
33594;DHT22;19920;52.242;20.940;2023-04-20T01:31:10;10.20;99.90
33594;DHT22;19920;52.242;20.940;2023-04-20T01:33:36;10.10;99.90
33594;DHT22;19920;52.242;20.940;2023-04-20T01:36:03;10.10;99.90
33594;DHT22;19920;52.242;20.940;2023-04-20T01:38:29;10.10;99.90
33594;DHT22;19920;52.242;20.940;2023-04-20T01:40:57;10.10;99.90
33594;DHT22;19920;52.242;20.940;2023-04-20T01:43:24;10.10;99.90
33594;DHT22;19920;52.242;20.940;2023-04-20T01:45:49;10.10;99.90
33594;DHT22;19920;52.242;20.940;2023-04-20T01:48:15;10.10;99.90
33594;DHT22;19920;52.242;20.940;2023-04-20T01:50:41;10.10;99.90
33594;DHT22;19920;52.242;20.940;2023-04-20T01:53:06;10.10;99.90
33594;DHT22;19920;52.242;20.940;2023-04-20T01:55:32;10.10;99.90
33594;DHT22;19920;52.242;20.940;2023-04-20T01:57:58;10.10;99.90
33594;DHT22;19920;52.242;20.940;2023-04-20T02:00:24;10.10;99.90
33594;DHT22;19920;52.242;20.940;2023-04-20T02:02:50;10.00;99.90
33594;DHT22;19920;52.242;20.940;2023-04-20T02:05:15;10.10;99.90
33594;DHT22;19920;52.242;20.940;2023-04-20T02:07:41;10.10;99.90
33594;DHT22;19920;52.242;20.940;2023-04-20T02:10:07;10.20;99.90
33594;DHT22;19920;52.242;20.940;2023-04-20T02:12:33;10.20;99.90
33594;DHT22;19920;52.242;20.940;2023-04-20T02:14:58;10.20;99.90
33594;DHT22;19920;52.242;20.940;2023-04-20T02:17:24;10.20;99.90
33594;DHT22;19920;52.242;20.940;2023-04-20T02:19:50;10.20;99.90
33594;DHT22;19920;52.242;20.940;2023-04-20T02:22:16;10.10;99.90
33594;DHT22;19920;52.242;20.940;2023-04-20T02:24:42;10.20;99.90
33594;DHT22;19920;52.242;20.940;2023-04-20T02:27:08;10.10;99.90
33594;DHT22;19920;52.242;20.940;2023-04-20T02:29:34;10.10;99.90
33594;DHT22;19920;52.242;20.940;2023-04-20T02:32:00;10.10;99.90
33594;DHT22;19920;52.242;20.940;2023-04-20T02:34:25;10.10;99.90
33594;DHT22;19920;52.242;20.940;2023-04-20T02:36:51;10.20;99.90
33594;DHT22;19920;52.242;20.940;2023-04-20T02:39:17;10.10;99.90
33594;DHT22;19920;52.242;20.940;2023-04-20T02:41:43;10.10;99.90
33594;DHT22;19920;52.242;20.940;2023-04-20T02:44:08;10.20;99.90
33594;DHT22;19920;52.242;20.940;2023-04-20T02:46:34;10.10;99.90
33594;DHT22;19920;52.242;20.940;2023-04-20T02:49:00;10.10;99.90
33594;DHT22;19920;52.242;20.940;2023-04-20T02:51:25;10.10;99.90
33594;DHT22;19920;52.242;20.940;2023-04-20T02:53:51;10.10;99.90
33594;DHT22;19920;52.242;20.940;2023-04-20T02:56:17;10.00;99.90
33594;DHT22;19920;52.242;20.940;2023-04-20T02:58:43;10.00;99.90
33594;DHT22;19920;52.242;20.940;2023-04-20T03:01:09;10.10;99.90
33594;DHT22;19920;52.242;20.940;2023-04-20T03:03:34;10.10;99.90
33594;DHT22;19920;52.242;20.940;2023-04-20T03:06:00;10.00;99.90
33594;DHT22;19920;52.242;20.940;2023-04-20T03:08:26;9.90;99.90
33594;DHT22;19920;52.242;20.940;2023-04-20T03:10:51;10.00;99.90
33594;DHT22;19920;52.242;20.940;2023-04-20T03:13:17;9.90;99.90
33594;DHT22;19920;52.242;20.940;2023-04-20T03:15:42;9.90;99.90
33594;DHT22;19920;52.242;20.940;2023-04-20T03:18:08;10.00;99.90
33594;DHT22;19920;52.242;20.940;2023-04-20T03:20:34;10.00;99.90
33594;DHT22;19920;52.242;20.940;2023-04-20T03:23:00;10.00;99.90
33594;DHT22;19920;52.242;20.940;2023-04-20T03:25:26;10.00;99.90
33594;DHT22;19920;52.242;20.940;2023-04-20T03:27:52;10.00;99.90
33594;DHT22;19920;52.242;20.940;2023-04-20T03:30:17;10.00;99.90
33594;DHT22;19920;52.242;20.940;2023-04-20T03:32:43;10.10;99.90
33594;DHT22;19920;52.242;20.940;2023-04-20T03:35:09;10.10;99.90
33594;DHT22;19920;52.242;20.940;2023-04-20T03:37:38;10.00;99.90
33594;DHT22;19920;52.242;20.940;2023-04-20T03:40:04;10.00;99.90
33594;DHT22;19920;52.242;20.940;2023-04-20T03:42:31;10.00;99.90
33594;DHT22;19920;52.242;20.940;2023-04-20T03:44:57;9.90;99.90
33594;DHT22;19920;52.242;20.940;2023-04-20T03:47:22;9.90;99.90
33594;DHT22;19920;52.242;20.940;2023-04-20T03:49:48;10.00;99.90
33594;DHT22;19920;52.242;20.940;2023-04-20T03:52:14;10.00;99.90
33594;DHT22;19920;52.242;20.940;2023-04-20T03:54:39;10.00;99.90
33594;DHT22;19920;52.242;20.940;2023-04-20T03:57:06;10.00;99.90
33594;DHT22;19920;52.242;20.940;2023-04-20T03:59:32;9.90;99.90
33594;DHT22;19920;52.242;20.940;2023-04-20T04:01:58;9.90;99.90
33594;DHT22;19920;52.242;20.940;2023-04-20T04:04:24;9.90;99.90
33594;DHT22;19920;52.242;20.940;2023-04-20T04:06:50;9.80;99.90
33594;DHT22;19920;52.242;20.940;2023-04-20T04:09:16;9.80;99.90
33594;DHT22;19920;52.242;20.940;2023-04-20T04:11:41;9.80;99.90
33594;DHT22;19920;52.242;20.940;2023-04-20T04:14:07;9.90;99.90
33594;DHT22;19920;52.242;20.940;2023-04-20T04:16:33;9.80;99.90
33594;DHT22;19920;52.242;20.940;2023-04-20T04:18:58;9.80;99.90
33594;DHT22;19920;52.242;20.940;2023-04-20T04:21:24;9.80;99.90
33594;DHT22;19920;52.242;20.940;2023-04-20T04:23:50;9.70;99.90
33594;DHT22;19920;52.242;20.940;2023-04-20T04:26:15;9.70;99.90
33594;DHT22;19920;52.242;20.940;2023-04-20T04:28:43;9.70;99.90
33594;DHT22;19920;52.242;20.940;2023-04-20T04:31:10;9.80;99.90
33594;DHT22;19920;52.242;20.940;2023-04-20T04:33:36;9.80;99.90
33594;DHT22;19920;52.242;20.940;2023-04-20T04:36:03;9.90;99.90
33594;DHT22;19920;52.242;20.940;2023-04-20T04:38:28;10.00;99.90
33594;DHT22;19920;52.242;20.940;2023-04-20T04:40:55;10.00;99.90
33594;DHT22;19920;52.242;20.940;2023-04-20T04:43:21;10.10;99.90
33594;DHT22;19920;52.242;20.940;2023-04-20T04:45:48;10.10;99.90
33594;DHT22;19920;52.242;20.940;2023-04-20T04:48:14;10.10;99.90
33594;DHT22;19920;52.242;20.940;2023-04-20T04:50:40;10.20;99.90
33594;DHT22;19920;52.242;20.940;2023-04-20T04:53:06;10.20;99.90
33594;DHT22;19920;52.242;20.940;2023-04-20T04:55:31;10.30;99.90
33594;DHT22;19920;52.242;20.940;2023-04-20T04:57:57;10.40;99.90
33594;DHT22;19920;52.242;20.940;2023-04-20T05:00:23;10.40;99.90
33594;DHT22;19920;52.242;20.940;2023-04-20T05:02:49;10.50;99.90
33594;DHT22;19920;52.242;20.940;2023-04-20T05:05:17;10.50;99.90
33594;DHT22;19920;52.242;20.940;2023-04-20T05:07:43;10.60;99.90
33594;DHT22;19920;52.242;20.940;2023-04-20T05:10:09;10.60;99.90
33594;DHT22;19920;52.242;20.940;2023-04-20T05:12:35;10.70;99.90
33594;DHT22;19920;52.242;20.940;2023-04-20T05:15:01;10.70;99.90
33594;DHT22;19920;52.242;20.940;2023-04-20T05:17:27;10.80;99.90
33594;DHT22;19920;52.242;20.940;2023-04-20T05:19:52;10.90;99.90
33594;DHT22;19920;52.242;20.940;2023-04-20T05:22:18;11.00;99.90
33594;DHT22;19920;52.242;20.940;2023-04-20T05:24:45;11.00;99.90
33594;DHT22;19920;52.242;20.940;2023-04-20T05:27:10;11.10;99.90
33594;DHT22;19920;52.242;20.940;2023-04-20T05:29:37;11.20;99.90
33594;DHT22;19920;52.242;20.940;2023-04-20T05:32:03;11.30;99.90
33594;DHT22;19920;52.242;20.940;2023-04-20T05:34:29;11.40;99.90
33594;DHT22;19920;52.242;20.940;2023-04-20T05:36:54;11.50;99.90
33594;DHT22;19920;52.242;20.940;2023-04-20T05:39:21;11.60;99.90
33594;DHT22;19920;52.242;20.940;2023-04-20T05:41:47;11.80;99.90
33594;DHT22;19920;52.242;20.940;2023-04-20T05:44:12;12.00;99.90
33594;DHT22;19920;52.242;20.940;2023-04-20T05:46:38;12.10;99.90
33594;DHT22;19920;52.242;20.940;2023-04-20T05:49:04;12.10;99.90
33594;DHT22;19920;52.242;20.940;2023-04-20T05:51:30;12.10;99.90
33594;DHT22;19920;52.242;20.940;2023-04-20T05:53:59;12.10;99.90
33594;DHT22;19920;52.242;20.940;2023-04-20T05:56:25;12.00;99.90
33594;DHT22;19920;52.242;20.940;2023-04-20T05:58:52;11.90;99.90
33594;DHT22;19920;52.242;20.940;2023-04-20T06:01:18;11.80;99.90
33594;DHT22;19920;52.242;20.940;2023-04-20T06:03:44;11.70;99.90
33594;DHT22;19920;52.242;20.940;2023-04-20T06:06:09;11.80;99.90
33594;DHT22;19920;52.242;20.940;2023-04-20T06:08:35;11.90;99.90
33594;DHT22;19920;52.242;20.940;2023-04-20T06:11:01;11.90;99.90
33594;DHT22;19920;52.242;20.940;2023-04-20T06:13:27;12.00;99.90
33594;DHT22;19920;52.242;20.940;2023-04-20T06:15:53;12.10;99.90
33594;DHT22;19920;52.242;20.940;2023-04-20T06:18:19;12.40;99.90
33594;DHT22;19920;52.242;20.940;2023-04-20T06:20:45;12.50;99.90
33594;DHT22;19920;52.242;20.940;2023-04-20T06:23:11;12.70;99.90
33594;DHT22;19920;52.242;20.940;2023-04-20T06:25:36;13.00;99.90
33594;DHT22;19920;52.242;20.940;2023-04-20T06:28:03;13.10;99.90
33594;DHT22;19920;52.242;20.940;2023-04-20T06:30:28;13.20;99.90
33594;DHT22;19920;52.242;20.940;2023-04-20T06:32:54;13.20;99.90
33594;DHT22;19920;52.242;20.940;2023-04-20T06:35:21;13.40;99.90
33594;DHT22;19920;52.242;20.940;2023-04-20T06:37:48;13.50;99.90
33594;DHT22;19920;52.242;20.940;2023-04-20T06:40:13;13.50;99.90
33594;DHT22;19920;52.242;20.940;2023-04-20T06:42:39;13.50;99.90
33594;DHT22;19920;52.242;20.940;2023-04-20T06:45:06;13.60;99.90
33594;DHT22;19920;52.242;20.940;2023-04-20T06:47:32;13.90;99.90
33594;DHT22;19920;52.242;20.940;2023-04-20T06:49:59;13.90;99.90
33594;DHT22;19920;52.242;20.940;2023-04-20T06:52:25;13.80;99.90
33594;DHT22;19920;52.242;20.940;2023-04-20T06:54:51;13.90;99.90
33594;DHT22;19920;52.242;20.940;2023-04-20T06:57:17;14.00;99.90
33594;DHT22;19920;52.242;20.940;2023-04-20T06:59:43;14.10;99.90
33594;DHT22;19920;52.242;20.940;2023-04-20T07:02:08;14.20;99.90
33594;DHT22;19920;52.242;20.940;2023-04-20T07:04:34;14.20;99.90
33594;DHT22;19920;52.242;20.940;2023-04-20T07:07:00;14.30;99.90
33594;DHT22;19920;52.242;20.940;2023-04-20T07:09:26;14.40;99.90
33594;DHT22;19920;52.242;20.940;2023-04-20T07:11:52;14.40;99.90
33594;DHT22;19920;52.242;20.940;2023-04-20T07:14:17;14.60;99.90
33594;DHT22;19920;52.242;20.940;2023-04-20T07:16:43;14.60;99.90
33594;DHT22;19920;52.242;20.940;2023-04-20T07:19:09;14.60;99.90
33594;DHT22;19920;52.242;20.940;2023-04-20T07:21:35;14.60;99.90
33594;DHT22;19920;52.242;20.940;2023-04-20T07:24:01;14.70;99.90
33594;DHT22;19920;52.242;20.940;2023-04-20T07:26:27;14.70;99.90
33594;DHT22;19920;52.242;20.940;2023-04-20T07:28:52;14.80;99.90
33594;DHT22;19920;52.242;20.940;2023-04-20T07:31:18;14.80;99.90
33594;DHT22;19920;52.242;20.940;2023-04-20T07:33:44;14.90;99.90
33594;DHT22;19920;52.242;20.940;2023-04-20T07:36:09;14.80;99.90
33594;DHT22;19920;52.242;20.940;2023-04-20T07:38:35;14.90;99.90
33594;DHT22;19920;52.242;20.940;2023-04-20T07:41:02;14.90;99.90
33594;DHT22;19920;52.242;20.940;2023-04-20T07:43:27;15.00;99.90
33594;DHT22;19920;52.242;20.940;2023-04-20T07:45:53;14.90;99.90
33594;DHT22;19920;52.242;20.940;2023-04-20T07:48:19;15.00;99.90
33594;DHT22;19920;52.242;20.940;2023-04-20T07:50:45;15.10;99.90
33594;DHT22;19920;52.242;20.940;2023-04-20T07:53:11;15.10;99.90
33594;DHT22;19920;52.242;20.940;2023-04-20T07:55:37;15.20;99.90
33594;DHT22;19920;52.242;20.940;2023-04-20T07:58:02;15.30;99.90
33594;DHT22;19920;52.242;20.940;2023-04-20T08:00:28;15.50;99.90
33594;DHT22;19920;52.242;20.940;2023-04-20T08:02:54;15.60;99.90
33594;DHT22;19920;52.242;20.940;2023-04-20T08:05:20;15.60;99.90
33594;DHT22;19920;52.242;20.940;2023-04-20T08:07:46;15.80;99.90
33594;DHT22;19920;52.242;20.940;2023-04-20T08:10:12;15.90;99.90
33594;DHT22;19920;52.242;20.940;2023-04-20T08:12:38;15.90;99.90
33594;DHT22;19920;52.242;20.940;2023-04-20T08:15:05;16.00;99.90
33594;DHT22;19920;52.242;20.940;2023-04-20T08:17:31;16.10;99.90
33594;DHT22;19920;52.242;20.940;2023-04-20T08:19:57;16.30;99.90
33594;DHT22;19920;52.242;20.940;2023-04-20T08:22:23;16.30;99.90
33594;DHT22;19920;52.242;20.940;2023-04-20T08:24:51;16.40;99.90
33594;DHT22;19920;52.242;20.940;2023-04-20T08:27:17;16.50;99.90
33594;DHT22;19920;52.242;20.940;2023-04-20T08:29:43;16.60;99.90
33594;DHT22;19920;52.242;20.940;2023-04-20T08:32:08;16.70;99.90
33594;DHT22;19920;52.242;20.940;2023-04-20T08:34:37;16.70;99.90
33594;DHT22;19920;52.242;20.940;2023-04-20T08:37:03;16.80;99.90
33594;DHT22;19920;52.242;20.940;2023-04-20T08:39:28;16.90;99.90
33594;DHT22;19920;52.242;20.940;2023-04-20T08:41:55;17.00;99.90
33594;DHT22;19920;52.242;20.940;2023-04-20T08:44:22;16.80;99.90
33594;DHT22;19920;52.242;20.940;2023-04-20T08:46:48;16.90;99.90
33594;DHT22;19920;52.242;20.940;2023-04-20T08:49:15;17.00;99.90
33594;DHT22;19920;52.242;20.940;2023-04-20T08:51:43;17.00;99.90
33594;DHT22;19920;52.242;20.940;2023-04-20T08:54:10;17.00;99.90
33594;DHT22;19920;52.242;20.940;2023-04-20T08:56:37;16.90;99.90
33594;DHT22;19920;52.242;20.940;2023-04-20T08:59:04;16.90;99.90
33594;DHT22;19920;52.242;20.940;2023-04-20T09:01:31;17.10;99.90
33594;DHT22;19920;52.242;20.940;2023-04-20T09:03:58;17.10;99.90
33594;DHT22;19920;52.242;20.940;2023-04-20T09:06:24;17.10;99.90
33594;DHT22;19920;52.242;20.940;2023-04-20T09:08:51;17.20;99.90
33594;DHT22;19920;52.242;20.940;2023-04-20T09:11:21;17.00;99.90
33594;DHT22;19920;52.242;20.940;2023-04-20T09:14:00;17.00;99.90
33594;DHT22;19920;52.242;20.940;2023-04-20T09:16:27;17.00;99.90
33594;DHT22;19920;52.242;20.940;2023-04-20T09:18:54;17.00;99.90
33594;DHT22;19920;52.242;20.940;2023-04-20T09:21:20;17.00;99.90
33594;DHT22;19920;52.242;20.940;2023-04-20T09:26:21;17.10;99.90
33594;DHT22;19920;52.242;20.940;2023-04-20T09:28:47;17.30;99.90
33594;DHT22;19920;52.242;20.940;2023-04-20T09:31:22;17.30;99.90
33594;DHT22;19920;52.242;20.940;2023-04-20T09:34:02;17.30;99.90
33594;DHT22;19920;52.242;20.940;2023-04-20T09:36:41;17.10;99.90
33594;DHT22;19920;52.242;20.940;2023-04-20T09:39:21;17.20;99.90
33594;DHT22;19920;52.242;20.940;2023-04-20T09:41:47;17.30;99.90
33594;DHT22;19920;52.242;20.940;2023-04-20T09:44:15;17.60;99.90
33594;DHT22;19920;52.242;20.940;2023-04-20T09:46:41;18.00;99.90
33594;DHT22;19920;52.242;20.940;2023-04-20T09:49:09;18.50;99.90
33594;DHT22;19920;52.242;20.940;2023-04-20T09:51:36;18.50;99.90
33594;DHT22;19920;52.242;20.940;2023-04-20T09:54:04;18.70;99.90
33594;DHT22;19920;52.242;20.940;2023-04-20T09:56:31;18.80;99.90
33594;DHT22;19920;52.242;20.940;2023-04-20T09:58:58;18.80;99.90
33594;DHT22;19920;52.242;20.940;2023-04-20T10:01:25;18.80;99.90
33594;DHT22;19920;52.242;20.940;2023-04-20T10:03:51;18.90;99.90
33594;DHT22;19920;52.242;20.940;2023-04-20T10:06:21;18.90;99.90
33594;DHT22;19920;52.242;20.940;2023-04-20T10:08:47;19.00;99.90
33594;DHT22;19920;52.242;20.940;2023-04-20T10:13:54;18.80;99.90
33594;DHT22;19920;52.242;20.940;2023-04-20T10:16:20;18.70;99.90
33594;DHT22;19920;52.242;20.940;2023-04-20T10:18:59;18.70;99.90
33594;DHT22;19920;52.242;20.940;2023-04-20T10:21:32;18.70;99.90
33594;DHT22;19920;52.242;20.940;2023-04-20T10:24:08;18.80;99.90
33594;DHT22;19920;52.242;20.940;2023-04-20T10:26:35;18.70;99.90
33594;DHT22;19920;52.242;20.940;2023-04-20T10:29:02;18.70;99.90
33594;DHT22;19920;52.242;20.940;2023-04-20T10:31:37;18.60;99.90
33594;DHT22;19920;52.242;20.940;2023-04-20T10:34:04;18.70;99.90
33594;DHT22;19920;52.242;20.940;2023-04-20T10:36:37;18.70;99.90
33594;DHT22;19920;52.242;20.940;2023-04-20T10:39:19;19.00;99.90
33594;DHT22;19920;52.242;20.940;2023-04-20T10:41:53;19.30;99.90
33594;DHT22;19920;52.242;20.940;2023-04-20T10:44:20;19.60;99.90
33594;DHT22;19920;52.242;20.940;2023-04-20T10:46:49;19.70;99.90
33594;DHT22;19920;52.242;20.940;2023-04-20T10:49:16;19.50;99.90
33594;DHT22;19920;52.242;20.940;2023-04-20T10:51:49;19.60;99.90
33594;DHT22;19920;52.242;20.940;2023-04-20T10:54:15;19.80;99.90
33594;DHT22;19920;52.242;20.940;2023-04-20T10:56:45;19.70;99.90
33594;DHT22;19920;52.242;20.940;2023-04-20T10:59:12;19.60;99.90
33594;DHT22;19920;52.242;20.940;2023-04-20T11:01:39;19.70;99.90
33594;DHT22;19920;52.242;20.940;2023-04-20T11:04:06;19.70;99.90
33594;DHT22;19920;52.242;20.940;2023-04-20T11:06:32;19.80;99.90
33594;DHT22;19920;52.242;20.940;2023-04-20T11:08:58;20.10;99.90
33594;DHT22;19920;52.242;20.940;2023-04-20T11:11:26;20.20;99.90
33594;DHT22;19920;52.242;20.940;2023-04-20T11:14:03;20.40;99.90
33594;DHT22;19920;52.242;20.940;2023-04-20T11:16:30;20.70;99.90
33594;DHT22;19920;52.242;20.940;2023-04-20T11:18:55;20.80;99.90
33594;DHT22;19920;52.242;20.940;2023-04-20T11:21:22;20.60;99.90
33594;DHT22;19920;52.242;20.940;2023-04-20T11:23:48;20.40;99.90
33594;DHT22;19920;52.242;20.940;2023-04-20T11:26:15;20.40;99.90
33594;DHT22;19920;52.242;20.940;2023-04-20T11:28:53;20.50;99.90
33594;DHT22;19920;52.242;20.940;2023-04-20T11:31:19;20.30;99.90
33594;DHT22;19920;52.242;20.940;2023-04-20T11:33:45;20.10;99.90
33594;DHT22;19920;52.242;20.940;2023-04-20T11:36:19;20.00;99.90
33594;DHT22;19920;52.242;20.940;2023-04-20T11:38:44;19.80;99.90
33594;DHT22;19920;52.242;20.940;2023-04-20T11:41:10;19.70;99.90
33594;DHT22;19920;52.242;20.940;2023-04-20T11:43:36;19.70;99.90
33594;DHT22;19920;52.242;20.940;2023-04-20T11:46:02;19.80;99.90
33594;DHT22;19920;52.242;20.940;2023-04-20T11:48:30;20.20;99.90
33594;DHT22;19920;52.242;20.940;2023-04-20T11:50:57;20.50;99.90
33594;DHT22;19920;52.242;20.940;2023-04-20T11:53:23;20.90;99.90
33594;DHT22;19920;52.242;20.940;2023-04-20T11:55:48;21.20;99.90
33594;DHT22;19920;52.242;20.940;2023-04-20T11:58:14;21.10;98.10
33594;DHT22;19920;52.242;20.940;2023-04-20T12:00:40;21.10;97.10
33594;DHT22;19920;52.242;20.940;2023-04-20T12:03:06;20.70;97.20
33594;DHT22;19920;52.242;20.940;2023-04-20T12:05:31;20.40;97.80
33594;DHT22;19920;52.242;20.940;2023-04-20T12:07:57;20.30;97.20
33594;DHT22;19920;52.242;20.940;2023-04-20T12:10:23;20.50;96.80
33594;DHT22;19920;52.242;20.940;2023-04-20T12:12:49;21.00;97.50
33594;DHT22;19920;52.242;20.940;2023-04-20T12:15:14;21.30;96.10
33594;DHT22;19920;52.242;20.940;2023-04-20T12:17:40;21.50;95.30
33594;DHT22;19920;52.242;20.940;2023-04-20T12:20:06;21.60;94.60
33594;DHT22;19920;52.242;20.940;2023-04-20T12:22:33;21.70;94.30
33594;DHT22;19920;52.242;20.940;2023-04-20T12:24:59;21.70;93.80
33594;DHT22;19920;52.242;20.940;2023-04-20T12:27:25;21.30;94.00
33594;DHT22;19920;52.242;20.940;2023-04-20T12:29:51;20.90;93.40
33594;DHT22;19920;52.242;20.940;2023-04-20T12:32:16;20.70;94.90
33594;DHT22;19920;52.242;20.940;2023-04-20T12:34:42;20.50;92.50
33594;DHT22;19920;52.242;20.940;2023-04-20T12:37:08;20.50;93.40
33594;DHT22;19920;52.242;20.940;2023-04-20T12:39:33;21.00;93.50
33594;DHT22;19920;52.242;20.940;2023-04-20T12:41:59;21.60;93.00
33594;DHT22;19920;52.242;20.940;2023-04-20T12:44:26;21.90;93.30
33594;DHT22;19920;52.242;20.940;2023-04-20T12:46:52;22.10;91.10
33594;DHT22;19920;52.242;20.940;2023-04-20T12:49:18;22.40;90.20
33594;DHT22;19920;52.242;20.940;2023-04-20T12:51:43;22.60;91.10
33594;DHT22;19920;52.242;20.940;2023-04-20T12:54:09;22.70;90.10
33594;DHT22;19920;52.242;20.940;2023-04-20T12:56:36;22.80;91.30
33594;DHT22;19920;52.242;20.940;2023-04-20T12:59:05;22.70;89.00
33594;DHT22;19920;52.242;20.940;2023-04-20T13:01:30;22.30;87.90
33594;DHT22;19920;52.242;20.940;2023-04-20T13:03:56;21.70;90.90
33594;DHT22;19920;52.242;20.940;2023-04-20T13:06:22;21.40;90.90
33594;DHT22;19920;52.242;20.940;2023-04-20T13:08:47;21.10;91.30
33594;DHT22;19920;52.242;20.940;2023-04-20T13:11:14;21.40;91.00
33594;DHT22;19920;52.242;20.940;2023-04-20T13:13:41;21.90;90.00
33594;DHT22;19920;52.242;20.940;2023-04-20T13:16:07;22.30;91.00
33594;DHT22;19920;52.242;20.940;2023-04-20T13:18:33;22.70;87.70
33594;DHT22;19920;52.242;20.940;2023-04-20T13:20:59;22.70;89.30
33594;DHT22;19920;52.242;20.940;2023-04-20T13:23:24;22.30;87.50
33594;DHT22;19920;52.242;20.940;2023-04-20T13:25:51;22.10;88.20
33594;DHT22;19920;52.242;20.940;2023-04-20T13:28:17;21.70;88.30
33594;DHT22;19920;52.242;20.940;2023-04-20T13:30:43;21.60;89.40
33594;DHT22;19920;52.242;20.940;2023-04-20T13:33:09;21.30;89.70
33594;DHT22;19920;52.242;20.940;2023-04-20T13:35:35;21.00;90.40
33594;DHT22;19920;52.242;20.940;2023-04-20T13:38:04;20.80;89.30
33594;DHT22;19920;52.242;20.940;2023-04-20T13:40:30;20.70;90.60
33594;DHT22;19920;52.242;20.940;2023-04-20T13:42:56;21.00;90.40
33594;DHT22;19920;52.242;20.940;2023-04-20T13:45:22;21.40;91.50
33594;DHT22;19920;52.242;20.940;2023-04-20T13:47:48;21.60;90.10
33594;DHT22;19920;52.242;20.940;2023-04-20T13:50:14;21.90;86.80
33594;DHT22;19920;52.242;20.940;2023-04-20T13:52:39;22.70;86.40
33594;DHT22;19920;52.242;20.940;2023-04-20T13:55:05;24.10;85.30
33594;DHT22;19920;52.242;20.940;2023-04-20T13:57:31;25.00;84.20
33594;DHT22;19920;52.242;20.940;2023-04-20T13:59:57;24.90;79.80
33594;DHT22;19920;52.242;20.940;2023-04-20T14:02:23;24.30;80.90
33594;DHT22;19920;52.242;20.940;2023-04-20T14:04:49;24.00;82.80
33594;DHT22;19920;52.242;20.940;2023-04-20T14:07:15;23.60;82.50
33594;DHT22;19920;52.242;20.940;2023-04-20T14:09:40;23.10;85.10
33594;DHT22;19920;52.242;20.940;2023-04-20T14:12:09;22.80;84.90
33594;DHT22;19920;52.242;20.940;2023-04-20T14:14:35;22.50;86.00
33594;DHT22;19920;52.242;20.940;2023-04-20T14:17:00;22.10;87.20
33594;DHT22;19920;52.242;20.940;2023-04-20T14:19:26;21.70;85.40
33594;DHT22;19920;52.242;20.940;2023-04-20T14:21:52;21.50;85.40
33594;DHT22;19920;52.242;20.940;2023-04-20T14:24:18;21.40;85.50
33594;DHT22;19920;52.242;20.940;2023-04-20T14:26:43;21.30;83.20
33594;DHT22;19920;52.242;20.940;2023-04-20T14:29:09;21.40;87.00
33594;DHT22;19920;52.242;20.940;2023-04-20T14:31:35;21.70;83.40
33594;DHT22;19920;52.242;20.940;2023-04-20T14:34:01;22.90;84.30
33594;DHT22;19920;52.242;20.940;2023-04-20T14:36:27;23.90;78.50
33594;DHT22;19920;52.242;20.940;2023-04-20T14:38:53;24.70;78.10
33594;DHT22;19920;52.242;20.940;2023-04-20T14:41:20;24.90;75.90
33594;DHT22;19920;52.242;20.940;2023-04-20T14:43:46;24.60;75.50
33594;DHT22;19920;52.242;20.940;2023-04-20T14:46:12;24.60;75.80
33594;DHT22;19920;52.242;20.940;2023-04-20T14:48:37;24.30;76.00
33594;DHT22;19920;52.242;20.940;2023-04-20T14:51:06;23.70;77.80
33594;DHT22;19920;52.242;20.940;2023-04-20T14:53:32;23.00;77.80
33594;DHT22;19920;52.242;20.940;2023-04-20T14:55:58;22.50;78.60
33594;DHT22;19920;52.242;20.940;2023-04-20T14:58:23;22.00;79.40
33594;DHT22;19920;52.242;20.940;2023-04-20T15:00:49;21.80;79.30
33594;DHT22;19920;52.242;20.940;2023-04-20T15:03:16;21.80;80.40
33594;DHT22;19920;52.242;20.940;2023-04-20T15:05:42;22.30;82.70
33594;DHT22;19920;52.242;20.940;2023-04-20T15:08:09;22.60;80.40
33594;DHT22;19920;52.242;20.940;2023-04-20T15:10:35;22.40;78.90
33594;DHT22;19920;52.242;20.940;2023-04-20T15:13:00;22.50;78.80
33594;DHT22;19920;52.242;20.940;2023-04-20T15:15:26;23.20;79.30
33594;DHT22;19920;52.242;20.940;2023-04-20T15:17:52;24.50;76.60